sensor_id;sensor_type;location;lat;lon;timestamp;P1;durP1;ratioP1;P2;durP2;ratioP2
12768;SDS011;6448;48.916;8.990;2023-12-20T00:00:13;2.20;;;2.00;;
12768;SDS011;6448;48.916;8.990;2023-12-20T00:01:14;2.33;;;2.13;;
12768;SDS011;6448;48.916;8.990;2023-12-20T00:02:16;2.17;;;1.95;;
12768;SDS011;6448;48.916;8.990;2023-12-20T00:03:17;1.70;;;1.60;;
12768;SDS011;6448;48.916;8.990;2023-12-20T00:04:18;1.90;;;1.80;;
12768;SDS011;6448;48.916;8.990;2023-12-20T00:05:19;1.80;;;1.70;;
12768;SDS011;6448;48.916;8.990;2023-12-20T00:06:21;1.67;;;1.57;;
12768;SDS011;6448;48.916;8.990;2023-12-20T00:07:21;1.80;;;1.70;;
12768;SDS011;6448;48.916;8.990;2023-12-20T00:08:23;1.70;;;1.60;;
12768;SDS011;6448;48.916;8.990;2023-12-20T00:09:24;1.60;;;1.50;;
12768;SDS011;6448;48.916;8.990;2023-12-20T00:10:26;1.58;;;1.48;;
12768;SDS011;6448;48.916;8.990;2023-12-20T00:11:26;1.63;;;1.47;;
12768;SDS011;6448;48.916;8.990;2023-12-20T00:12:28;1.42;;;1.33;;
12768;SDS011;6448;48.916;8.990;2023-12-20T00:13:29;2.30;;;2.10;;
12768;SDS011;6448;48.916;8.990;2023-12-20T00:14:30;2.85;;;2.65;;
12768;SDS011;6448;48.916;8.990;2023-12-20T00:15:33;2.90;;;2.70;;
12768;SDS011;6448;48.916;8.990;2023-12-20T00:16:34;2.70;;;2.50;;
12768;SDS011;6448;48.916;8.990;2023-12-20T00:17:36;2.50;;;2.30;;
12768;SDS011;6448;48.916;8.990;2023-12-20T00:18:37;2.57;;;2.37;;
12768;SDS011;6448;48.916;8.990;2023-12-20T00:19:37;2.40;;;2.20;;
12768;SDS011;6448;48.916;8.990;2023-12-20T00:20:39;2.65;;;2.00;;
12768;SDS011;6448;48.916;8.990;2023-12-20T00:21:40;2.20;;;2.00;;
12768;SDS011;6448;48.916;8.990;2023-12-20T00:22:42;2.08;;;1.88;;
12768;SDS011;6448;48.916;8.990;2023-12-20T00:23:43;2.70;;;2.50;;
12768;SDS011;6448;48.916;8.990;2023-12-20T00:24:45;2.85;;;2.65;;
12768;SDS011;6448;48.916;8.990;2023-12-20T00:25:45;3.20;;;2.90;;
12768;SDS011;6448;48.916;8.990;2023-12-20T00:26:47;3.08;;;2.80;;
12768;SDS011;6448;48.916;8.990;2023-12-20T00:27:48;3.90;;;3.60;;
12768;SDS011;6448;48.916;8.990;2023-12-20T00:28:49;3.97;;;3.67;;
12768;SDS011;6448;48.916;8.990;2023-12-20T00:29:50;3.75;;;3.45;;
12768;SDS011;6448;48.916;8.990;2023-12-20T00:30:53;3.67;;;3.40;;
12768;SDS011;6448;48.916;8.990;2023-12-20T00:31:54;4.32;;;4.00;;
12768;SDS011;6448;48.916;8.990;2023-12-20T00:32:56;4.88;;;4.47;;
12768;SDS011;6448;48.916;8.990;2023-12-20T00:33:56;5.70;;;5.20;;
12768;SDS011;6448;48.916;8.990;2023-12-20T00:34:58;4.65;;;4.30;;
12768;SDS011;6448;48.916;8.990;2023-12-20T00:35:59;5.00;;;4.60;;
12768;SDS011;6448;48.916;8.990;2023-12-20T00:37:01;4.78;;;4.38;;
12768;SDS011;6448;48.916;8.990;2023-12-20T00:38:02;4.80;;;4.40;;
12768;SDS011;6448;48.916;8.990;2023-12-20T00:39:05;5.20;;;4.70;;
12768;SDS011;6448;48.916;8.990;2023-12-20T00:40:07;6.18;;;5.68;;
12768;SDS011;6448;48.916;8.990;2023-12-20T00:41:09;6.22;;;5.72;;
12768;SDS011;6448;48.916;8.990;2023-12-20T00:42:10;6.60;;;6.10;;
12768;SDS011;6448;48.916;8.990;2023-12-20T00:43:11;6.80;;;6.20;;
12768;SDS011;6448;48.916;8.990;2023-12-20T00:44:12;6.70;;;6.10;;
12768;SDS011;6448;48.916;8.990;2023-12-20T00:45:13;6.53;;;6.03;;
12768;SDS011;6448;48.916;8.990;2023-12-20T00:46:16;5.93;;;5.43;;
12768;SDS011;6448;48.916;8.990;2023-12-20T00:47:17;6.00;;;5.50;;
12768;SDS011;6448;48.916;8.990;2023-12-20T00:48:18;5.50;;;5.10;;
12768;SDS011;6448;48.916;8.990;2023-12-20T00:49:20;5.65;;;5.15;;
12768;SDS011;6448;48.916;8.990;2023-12-20T00:50:21;5.57;;;5.07;;
12768;SDS011;6448;48.916;8.990;2023-12-20T00:51:23;5.88;;;5.38;;
12768;SDS011;6448;48.916;8.990;2023-12-20T00:52:23;5.95;;;5.45;;
12768;SDS011;6448;48.916;8.990;2023-12-20T00:53:25;5.82;;;5.32;;
12768;SDS011;6448;48.916;8.990;2023-12-20T00:54:26;5.70;;;5.20;;
12768;SDS011;6448;48.916;8.990;2023-12-20T00:55:28;5.82;;;5.32;;
12768;SDS011;6448;48.916;8.990;2023-12-20T00:56:29;4.88;;;4.47;;
12768;SDS011;6448;48.916;8.990;2023-12-20T00:57:30;5.07;;;4.68;;
12768;SDS011;6448;48.916;8.990;2023-12-20T00:58:31;5.05;;;4.65;;
12768;SDS011;6448;48.916;8.990;2023-12-20T00:59:32;4.70;;;4.30;;
12768;SDS011;6448;48.916;8.990;2023-12-20T01:00:34;4.70;;;4.30;;
12768;SDS011;6448;48.916;8.990;2023-12-20T01:01:36;4.37;;;4.07;;
12768;SDS011;6448;48.916;8.990;2023-12-20T01:02:38;4.72;;;4.32;;
12768;SDS011;6448;48.916;8.990;2023-12-20T01:03:40;4.10;;;3.80;;
12768;SDS011;6448;48.916;8.990;2023-12-20T01:04:42;3.85;;;3.55;;
12768;SDS011;6448;48.916;8.990;2023-12-20T01:05:43;3.80;;;3.50;;
12768;SDS011;6448;48.916;8.990;2023-12-20T01:06:45;3.88;;;3.58;;
12768;SDS011;6448;48.916;8.990;2023-12-20T01:07:46;3.50;;;3.20;;
12768;SDS011;6448;48.916;8.990;2023-12-20T01:08:48;3.28;;;2.97;;
12768;SDS011;6448;48.916;8.990;2023-12-20T01:09:48;2.77;;;2.57;;
12768;SDS011;6448;48.916;8.990;2023-12-20T01:10:50;3.00;;;2.80;;
12768;SDS011;6448;48.916;8.990;2023-12-20T01:11:51;2.88;;;2.67;;
12768;SDS011;6448;48.916;8.990;2023-12-20T01:12:53;3.22;;;2.92;;
12768;SDS011;6448;48.916;8.990;2023-12-20T01:13:54;3.05;;;2.75;;
12768;SDS011;6448;48.916;8.990;2023-12-20T01:14:56;2.88;;;2.67;;
12768;SDS011;6448;48.916;8.990;2023-12-20T01:15:57;2.83;;;2.63;;
12768;SDS011;6448;48.916;8.990;2023-12-20T01:17:00;2.72;;;2.53;;
12768;SDS011;6448;48.916;8.990;2023-12-20T01:18:02;2.55;;;2.35;;
12768;SDS011;6448;48.916;8.990;2023-12-20T01:19:03;2.50;;;2.30;;
12768;SDS011;6448;48.916;8.990;2023-12-20T01:20:06;2.60;;;2.40;;
12768;SDS011;6448;48.916;8.990;2023-12-20T01:21:07;2.50;;;2.30;;
12768;SDS011;6448;48.916;8.990;2023-12-20T01:22:09;2.50;;;2.30;;
12768;SDS011;6448;48.916;8.990;2023-12-20T01:23:09;2.55;;;2.35;;
12768;SDS011;6448;48.916;8.990;2023-12-20T01:24:11;2.50;;;2.30;;
12768;SDS011;6448;48.916;8.990;2023-12-20T01:25:12;2.80;;;2.60;;
12768;SDS011;6448;48.916;8.990;2023-12-20T01:26:14;2.50;;;2.30;;
12768;SDS011;6448;48.916;8.990;2023-12-20T01:27:16;2.60;;;2.40;;
12768;SDS011;6448;48.916;8.990;2023-12-20T01:28:17;2.60;;;2.40;;
12768;SDS011;6448;48.916;8.990;2023-12-20T01:29:18;2.60;;;2.40;;
12768;SDS011;6448;48.916;8.990;2023-12-20T01:30:20;2.47;;;2.28;;
12768;SDS011;6448;48.916;8.990;2023-12-20T01:31:20;2.47;;;2.28;;
12768;SDS011;6448;48.916;8.990;2023-12-20T01:32:24;3.08;;;2.25;;
12768;SDS011;6448;48.916;8.990;2023-12-20T01:33:24;2.65;;;2.45;;
12768;SDS011;6448;48.916;8.990;2023-12-20T01:34:25;2.60;;;2.40;;
12768;SDS011;6448;48.916;8.990;2023-12-20T01:35:27;2.72;;;2.50;;
12768;SDS011;6448;48.916;8.990;2023-12-20T01:36:28;2.47;;;2.28;;
12768;SDS011;6448;48.916;8.990;2023-12-20T01:37:30;2.70;;;2.50;;
12768;SDS011;6448;48.916;8.990;2023-12-20T01:38:31;2.90;;;2.70;;
12768;SDS011;6448;48.916;8.990;2023-12-20T01:39:33;3.20;;;2.90;;
12768;SDS011;6448;48.916;8.990;2023-12-20T01:40:33;3.03;;;2.80;;
12768;SDS011;6448;48.916;8.990;2023-12-20T01:41:35;3.13;;;2.75;;
12768;SDS011;6448;48.916;8.990;2023-12-20T01:42:36;2.90;;;2.70;;
12768;SDS011;6448;48.916;8.990;2023-12-20T01:43:37;2.85;;;2.65;;
12768;SDS011;6448;48.916;8.990;2023-12-20T01:44:39;3.10;;;2.90;;
12768;SDS011;6448;48.916;8.990;2023-12-20T01:45:39;2.85;;;2.65;;
12768;SDS011;6448;48.916;8.990;2023-12-20T01:46:41;2.90;;;2.70;;
12768;SDS011;6448;48.916;8.990;2023-12-20T01:47:43;2.50;;;2.30;;
12768;SDS011;6448;48.916;8.990;2023-12-20T01:48:45;2.45;;;2.20;;
12768;SDS011;6448;48.916;8.990;2023-12-20T01:49:46;2.45;;;2.25;;
12768;SDS011;6448;48.916;8.990;2023-12-20T01:50:49;2.60;;;2.40;;
12768;SDS011;6448;48.916;8.990;2023-12-20T01:51:49;2.35;;;2.17;;
12768;SDS011;6448;48.916;8.990;2023-12-20T01:52:51;2.50;;;2.30;;
12768;SDS011;6448;48.916;8.990;2023-12-20T01:53:56;2.85;;;2.40;;
12768;SDS011;6448;48.916;8.990;2023-12-20T01:54:59;3.08;;;2.60;;
12768;SDS011;6448;48.916;8.990;2023-12-20T01:56:03;2.70;;;2.50;;
12768;SDS011;6448;48.916;8.990;2023-12-20T01:57:05;2.60;;;2.40;;
12768;SDS011;6448;48.916;8.990;2023-12-20T01:58:08;2.78;;;2.50;;
12768;SDS011;6448;48.916;8.990;2023-12-20T01:59:10;2.45;;;2.25;;
12768;SDS011;6448;48.916;8.990;2023-12-20T02:00:12;2.38;;;2.17;;
12768;SDS011;6448;48.916;8.990;2023-12-20T02:01:14;2.40;;;2.20;;
12768;SDS011;6448;48.916;8.990;2023-12-20T02:02:17;2.15;;;1.95;;
12768;SDS011;6448;48.916;8.990;2023-12-20T02:03:19;2.15;;;2.03;;
12768;SDS011;6448;48.916;8.990;2023-12-20T02:04:22;2.20;;;2.00;;
12768;SDS011;6448;48.916;8.990;2023-12-20T02:05:23;1.70;;;1.60;;
12768;SDS011;6448;48.916;8.990;2023-12-20T02:08:03;1.50;;;1.40;;
12768;SDS011;6448;48.916;8.990;2023-12-20T02:09:05;1.40;;;1.30;;
12768;SDS011;6448;48.916;8.990;2023-12-20T02:10:07;1.40;;;1.30;;
12768;SDS011;6448;48.916;8.990;2023-12-20T02:11:10;1.40;;;1.30;;
12768;SDS011;6448;48.916;8.990;2023-12-20T02:12:10;1.50;;;1.40;;
12768;SDS011;6448;48.916;8.990;2023-12-20T02:13:11;0.93;;;0.93;;
12768;SDS011;6448;48.916;8.990;2023-12-20T02:14:13;0.80;;;0.80;;
12768;SDS011;6448;48.916;8.990;2023-12-20T02:15:14;0.80;;;0.80;;
12768;SDS011;6448;48.916;8.990;2023-12-20T02:16:16;0.73;;;0.73;;
12768;SDS011;6448;48.916;8.990;2023-12-20T02:17:17;0.90;;;0.90;;
12768;SDS011;6448;48.916;8.990;2023-12-20T02:18:20;0.60;;;0.60;;
12768;SDS011;6448;48.916;8.990;2023-12-20T02:19:21;0.73;;;0.70;;
12768;SDS011;6448;48.916;8.990;2023-12-20T02:20:22;0.70;;;0.70;;
12768;SDS011;6448;48.916;8.990;2023-12-20T02:21:25;0.57;;;0.57;;
12768;SDS011;6448;48.916;8.990;2023-12-20T02:22:33;0.60;;;0.60;;
12768;SDS011;6448;48.916;8.990;2023-12-20T02:23:34;0.60;;;0.60;;
12768;SDS011;6448;48.916;8.990;2023-12-20T02:24:36;0.60;;;0.60;;
12768;SDS011;6448;48.916;8.990;2023-12-20T02:25:37;0.50;;;0.50;;
12768;SDS011;6448;48.916;8.990;2023-12-20T02:26:39;0.50;;;0.50;;
12768;SDS011;6448;48.916;8.990;2023-12-20T02:27:40;0.50;;;0.50;;
12768;SDS011;6448;48.916;8.990;2023-12-20T02:28:42;0.60;;;0.60;;
12768;SDS011;6448;48.916;8.990;2023-12-20T02:29:43;0.50;;;0.50;;
12768;SDS011;6448;48.916;8.990;2023-12-20T02:30:43;0.50;;;0.50;;
12768;SDS011;6448;48.916;8.990;2023-12-20T02:31:45;0.60;;;0.60;;
12768;SDS011;6448;48.916;8.990;2023-12-20T02:32:46;0.60;;;0.60;;
12768;SDS011;6448;48.916;8.990;2023-12-20T02:33:49;0.60;;;0.52;;
12768;SDS011;6448;48.916;8.990;2023-12-20T02:34:50;0.53;;;0.53;;
12768;SDS011;6448;48.916;8.990;2023-12-20T02:35:51;0.50;;;0.50;;
12768;SDS011;6448;48.916;8.990;2023-12-20T02:36:54;0.52;;;0.52;;
12768;SDS011;6448;48.916;8.990;2023-12-20T02:37:55;0.45;;;0.45;;
12768;SDS011;6448;48.916;8.990;2023-12-20T02:38:56;0.43;;;0.43;;
12768;SDS011;6448;48.916;8.990;2023-12-20T02:39:58;0.50;;;0.50;;
12768;SDS011;6448;48.916;8.990;2023-12-20T02:40:59;0.47;;;0.47;;
12768;SDS011;6448;48.916;8.990;2023-12-20T02:42:01;0.50;;;0.50;;
12768;SDS011;6448;48.916;8.990;2023-12-20T02:43:01;0.60;;;0.60;;
12768;SDS011;6448;48.916;8.990;2023-12-20T02:44:03;0.47;;;0.47;;
12768;SDS011;6448;48.916;8.990;2023-12-20T02:45:05;0.47;;;0.47;;
12768;SDS011;6448;48.916;8.990;2023-12-20T02:46:07;0.50;;;0.50;;
12768;SDS011;6448;48.916;8.990;2023-12-20T02:47:08;0.60;;;0.60;;
12768;SDS011;6448;48.916;8.990;2023-12-20T02:48:09;0.50;;;0.50;;
12768;SDS011;6448;48.916;8.990;2023-12-20T02:49:11;0.60;;;0.60;;
12768;SDS011;6448;48.916;8.990;2023-12-20T02:50:12;0.63;;;0.63;;
12768;SDS011;6448;48.916;8.990;2023-12-20T02:51:14;0.60;;;0.60;;
12768;SDS011;6448;48.916;8.990;2023-12-20T02:52:16;0.60;;;0.60;;
12768;SDS011;6448;48.916;8.990;2023-12-20T02:53:17;0.50;;;0.50;;
12768;SDS011;6448;48.916;8.990;2023-12-20T02:54:18;0.60;;;0.60;;
12768;SDS011;6448;48.916;8.990;2023-12-20T02:55:20;0.50;;;0.50;;
12768;SDS011;6448;48.916;8.990;2023-12-20T02:56:21;0.50;;;0.50;;
12768;SDS011;6448;48.916;8.990;2023-12-20T02:57:22;0.50;;;0.50;;
12768;SDS011;6448;48.916;8.990;2023-12-20T02:58:23;0.50;;;0.50;;
12768;SDS011;6448;48.916;8.990;2023-12-20T02:59:24;0.50;;;0.50;;
12768;SDS011;6448;48.916;8.990;2023-12-20T03:00:26;0.50;;;0.50;;
12768;SDS011;6448;48.916;8.990;2023-12-20T03:01:26;0.50;;;0.50;;
12768;SDS011;6448;48.916;8.990;2023-12-20T03:02:29;0.50;;;0.50;;
12768;SDS011;6448;48.916;8.990;2023-12-20T03:03:30;0.93;;;0.70;;
12768;SDS011;6448;48.916;8.990;2023-12-20T03:04:32;0.60;;;0.60;;
12768;SDS011;6448;48.916;8.990;2023-12-20T03:05:33;0.77;;;0.77;;
12768;SDS011;6448;48.916;8.990;2023-12-20T03:06:34;0.60;;;0.60;;
12768;SDS011;6448;48.916;8.990;2023-12-20T03:07:37;0.60;;;0.60;;
12768;SDS011;6448;48.916;8.990;2023-12-20T03:08:39;0.60;;;0.60;;
12768;SDS011;6448;48.916;8.990;2023-12-20T03:09:41;0.50;;;0.50;;
12768;SDS011;6448;48.916;8.990;2023-12-20T03:10:42;0.40;;;0.40;;
12768;SDS011;6448;48.916;8.990;2023-12-20T03:11:43;0.52;;;0.52;;
12768;SDS011;6448;48.916;8.990;2023-12-20T03:12:44;0.52;;;0.52;;
12768;SDS011;6448;48.916;8.990;2023-12-20T03:13:46;0.70;;;0.70;;
12768;SDS011;6448;48.916;8.990;2023-12-20T03:14:47;0.60;;;0.60;;
12768;SDS011;6448;48.916;8.990;2023-12-20T03:15:48;0.52;;;0.52;;
12768;SDS011;6448;48.916;8.990;2023-12-20T03:16:50;0.43;;;0.43;;
12768;SDS011;6448;48.916;8.990;2023-12-20T03:17:51;0.52;;;0.52;;
12768;SDS011;6448;48.916;8.990;2023-12-20T03:18:52;0.50;;;0.50;;
12768;SDS011;6448;48.916;8.990;2023-12-20T03:19:53;0.50;;;0.50;;
12768;SDS011;6448;48.916;8.990;2023-12-20T03:20:55;0.50;;;0.50;;
12768;SDS011;6448;48.916;8.990;2023-12-20T03:21:56;0.50;;;0.50;;
12768;SDS011;6448;48.916;8.990;2023-12-20T03:23:02;0.40;;;0.40;;
12768;SDS011;6448;48.916;8.990;2023-12-20T03:24:03;0.50;;;0.50;;
12768;SDS011;6448;48.916;8.990;2023-12-20T03:25:05;0.50;;;0.50;;
12768;SDS011;6448;48.916;8.990;2023-12-20T03:26:07;0.40;;;0.32;;
12768;SDS011;6448;48.916;8.990;2023-12-20T03:27:08;0.50;;;0.50;;
12768;SDS011;6448;48.916;8.990;2023-12-20T03:28:09;0.60;;;0.60;;
12768;SDS011;6448;48.916;8.990;2023-12-20T03:29:10;0.40;;;0.40;;
12768;SDS011;6448;48.916;8.990;2023-12-20T03:30:12;0.50;;;0.50;;
12768;SDS011;6448;48.916;8.990;2023-12-20T03:31:14;0.40;;;0.40;;
12768;SDS011;6448;48.916;8.990;2023-12-20T03:32:14;0.50;;;0.50;;
12768;SDS011;6448;48.916;8.990;2023-12-20T03:33:16;0.40;;;0.40;;
12768;SDS011;6448;48.916;8.990;2023-12-20T03:34:17;0.60;;;0.50;;
12768;SDS011;6448;48.916;8.990;2023-12-20T03:35:19;0.50;;;0.50;;
12768;SDS011;6448;48.916;8.990;2023-12-20T03:36:20;0.43;;;0.43;;
12768;SDS011;6448;48.916;8.990;2023-12-20T03:37:21;0.52;;;0.47;;
12768;SDS011;6448;48.916;8.990;2023-12-20T03:38:24;0.50;;;0.50;;
12768;SDS011;6448;48.916;8.990;2023-12-20T03:39:26;0.50;;;0.50;;
12768;SDS011;6448;48.916;8.990;2023-12-20T03:40:27;0.50;;;0.50;;
12768;SDS011;6448;48.916;8.990;2023-12-20T03:41:28;0.50;;;0.50;;
12768;SDS011;6448;48.916;8.990;2023-12-20T03:42:29;0.63;;;0.52;;
12768;SDS011;6448;48.916;8.990;2023-12-20T03:43:31;0.45;;;0.45;;
12768;SDS011;6448;48.916;8.990;2023-12-20T03:44:31;0.57;;;0.57;;
12768;SDS011;6448;48.916;8.990;2023-12-20T03:45:33;0.60;;;0.60;;
12768;SDS011;6448;48.916;8.990;2023-12-20T03:46:35;0.40;;;0.40;;
12768;SDS011;6448;48.916;8.990;2023-12-20T03:47:35;0.40;;;0.40;;
12768;SDS011;6448;48.916;8.990;2023-12-20T03:48:36;0.50;;;0.50;;
12768;SDS011;6448;48.916;8.990;2023-12-20T03:49:38;0.47;;;0.47;;
12768;SDS011;6448;48.916;8.990;2023-12-20T03:50:38;0.40;;;0.40;;
12768;SDS011;6448;48.916;8.990;2023-12-20T03:51:40;0.43;;;0.37;;
12768;SDS011;6448;48.916;8.990;2023-12-20T03:52:42;0.40;;;0.40;;
12768;SDS011;6448;48.916;8.990;2023-12-20T03:53:45;0.40;;;0.40;;
12768;SDS011;6448;48.916;8.990;2023-12-20T03:54:46;0.43;;;0.43;;
12768;SDS011;6448;48.916;8.990;2023-12-20T03:55:48;0.40;;;0.40;;
12768;SDS011;6448;48.916;8.990;2023-12-20T03:56:49;0.40;;;0.40;;
12768;SDS011;6448;48.916;8.990;2023-12-20T03:57:51;0.45;;;0.45;;
12768;SDS011;6448;48.916;8.990;2023-12-20T03:58:52;0.50;;;0.50;;
12768;SDS011;6448;48.916;8.990;2023-12-20T03:59:53;0.50;;;0.50;;
12768;SDS011;6448;48.916;8.990;2023-12-20T04:00:54;0.30;;;0.30;;
12768;SDS011;6448;48.916;8.990;2023-12-20T04:01:56;0.45;;;0.45;;
12768;SDS011;6448;48.916;8.990;2023-12-20T04:02:57;0.52;;;0.50;;
12768;SDS011;6448;48.916;8.990;2023-12-20T04:03:58;0.32;;;0.32;;
12768;SDS011;6448;48.916;8.990;2023-12-20T04:04:59;0.45;;;0.45;;
12768;SDS011;6448;48.916;8.990;2023-12-20T04:06:01;0.60;;;0.60;;
12768;SDS011;6448;48.916;8.990;2023-12-20T04:07:02;0.45;;;0.45;;
12768;SDS011;6448;48.916;8.990;2023-12-20T04:08:03;0.40;;;0.40;;
12768;SDS011;6448;48.916;8.990;2023-12-20T04:09:07;0.50;;;0.50;;
12768;SDS011;6448;48.916;8.990;2023-12-20T04:10:09;0.50;;;0.50;;
12768;SDS011;6448;48.916;8.990;2023-12-20T04:11:11;0.40;;;0.40;;
12768;SDS011;6448;48.916;8.990;2023-12-20T04:12:11;0.45;;;0.45;;
12768;SDS011;6448;48.916;8.990;2023-12-20T04:13:13;0.50;;;0.50;;
12768;SDS011;6448;48.916;8.990;2023-12-20T04:14:14;0.60;;;0.57;;
12768;SDS011;6448;48.916;8.990;2023-12-20T04:15:16;0.45;;;0.45;;
12768;SDS011;6448;48.916;8.990;2023-12-20T04:16:16;0.50;;;0.50;;
12768;SDS011;6448;48.916;8.990;2023-12-20T04:17:17;0.50;;;0.50;;
12768;SDS011;6448;48.916;8.990;2023-12-20T04:18:19;0.47;;;0.47;;
12768;SDS011;6448;48.916;8.990;2023-12-20T04:19:20;0.40;;;0.40;;
12768;SDS011;6448;48.916;8.990;2023-12-20T04:20:22;0.70;;;0.70;;
12768;SDS011;6448;48.916;8.990;2023-12-20T04:21:22;0.60;;;0.60;;
12768;SDS011;6448;48.916;8.990;2023-12-20T04:22:24;0.60;;;0.60;;
12768;SDS011;6448;48.916;8.990;2023-12-20T04:23:25;0.55;;;0.55;;
12768;SDS011;6448;48.916;8.990;2023-12-20T04:24:28;0.50;;;0.50;;
12768;SDS011;6448;48.916;8.990;2023-12-20T04:25:29;0.50;;;0.50;;
12768;SDS011;6448;48.916;8.990;2023-12-20T04:26:31;0.40;;;0.40;;
12768;SDS011;6448;48.916;8.990;2023-12-20T04:27:31;0.50;;;0.50;;
12768;SDS011;6448;48.916;8.990;2023-12-20T04:28:33;0.50;;;0.50;;
12768;SDS011;6448;48.916;8.990;2023-12-20T04:29:34;0.50;;;0.50;;
12768;SDS011;6448;48.916;8.990;2023-12-20T04:30:36;0.70;;;0.70;;
12768;SDS011;6448;48.916;8.990;2023-12-20T04:31:36;0.60;;;0.60;;
12768;SDS011;6448;48.916;8.990;2023-12-20T04:32:38;0.60;;;0.60;;
12768;SDS011;6448;48.916;8.990;2023-12-20T04:33:39;0.60;;;0.60;;
12768;SDS011;6448;48.916;8.990;2023-12-20T04:34:41;0.60;;;0.60;;
12768;SDS011;6448;48.916;8.990;2023-12-20T04:35:41;0.50;;;0.50;;
12768;SDS011;6448;48.916;8.990;2023-12-20T04:36:45;0.60;;;0.60;;
12768;SDS011;6448;48.916;8.990;2023-12-20T04:37:47;0.50;;;0.50;;
12768;SDS011;6448;48.916;8.990;2023-12-20T04:38:49;0.60;;;0.60;;
12768;SDS011;6448;48.916;8.990;2023-12-20T04:39:52;0.50;;;0.50;;
12768;SDS011;6448;48.916;8.990;2023-12-20T04:40:53;0.50;;;0.50;;
12768;SDS011;6448;48.916;8.990;2023-12-20T04:41:54;0.60;;;0.60;;
12768;SDS011;6448;48.916;8.990;2023-12-20T04:42:56;0.60;;;0.60;;
12768;SDS011;6448;48.916;8.990;2023-12-20T04:43:56;0.43;;;0.43;;
12768;SDS011;6448;48.916;8.990;2023-12-20T04:44:58;0.70;;;0.70;;
12768;SDS011;6448;48.916;8.990;2023-12-20T04:45:59;0.52;;;0.52;;
12768;SDS011;6448;48.916;8.990;2023-12-20T04:47:00;0.50;;;0.50;;
12768;SDS011;6448;48.916;8.990;2023-12-20T04:48:01;0.88;;;0.88;;
12768;SDS011;6448;48.916;8.990;2023-12-20T04:49:04;0.90;;;0.90;;
12768;SDS011;6448;48.916;8.990;2023-12-20T04:50:05;1.00;;;1.00;;
12768;SDS011;6448;48.916;8.990;2023-12-20T04:51:07;1.30;;;1.20;;
12768;SDS011;6448;48.916;8.990;2023-12-20T04:52:08;1.10;;;1.10;;
12768;SDS011;6448;48.916;8.990;2023-12-20T04:53:09;0.90;;;0.90;;
12768;SDS011;6448;48.916;8.990;2023-12-20T04:54:11;0.80;;;0.80;;
12768;SDS011;6448;48.916;8.990;2023-12-20T04:55:15;0.70;;;0.70;;
12768;SDS011;6448;48.916;8.990;2023-12-20T04:56:16;0.70;;;0.70;;
12768;SDS011;6448;48.916;8.990;2023-12-20T04:57:17;0.70;;;0.70;;
12768;SDS011;6448;48.916;8.990;2023-12-20T04:58:19;0.60;;;0.60;;
12768;SDS011;6448;48.916;8.990;2023-12-20T04:59:20;0.67;;;0.67;;
12768;SDS011;6448;48.916;8.990;2023-12-20T05:00:21;0.60;;;0.60;;
12768;SDS011;6448;48.916;8.990;2023-12-20T05:01:22;0.70;;;0.70;;
12768;SDS011;6448;48.916;8.990;2023-12-20T05:02:24;0.60;;;0.60;;
12768;SDS011;6448;48.916;8.990;2023-12-20T05:03:25;0.67;;;0.67;;
12768;SDS011;6448;48.916;8.990;2023-12-20T05:04:26;0.70;;;0.70;;
12768;SDS011;6448;48.916;8.990;2023-12-20T05:05:27;0.60;;;0.60;;
12768;SDS011;6448;48.916;8.990;2023-12-20T05:06:29;0.80;;;0.80;;
12768;SDS011;6448;48.916;8.990;2023-12-20T05:07:30;0.80;;;0.80;;
12768;SDS011;6448;48.916;8.990;2023-12-20T05:08:31;0.70;;;0.70;;
12768;SDS011;6448;48.916;8.990;2023-12-20T05:09:32;0.60;;;0.60;;
12768;SDS011;6448;48.916;8.990;2023-12-20T05:10:34;0.87;;;0.87;;
12768;SDS011;6448;48.916;8.990;2023-12-20T05:11:36;1.30;;;0.90;;
12768;SDS011;6448;48.916;8.990;2023-12-20T05:12:37;0.82;;;0.80;;
12768;SDS011;6448;48.916;8.990;2023-12-20T05:13:38;0.70;;;0.70;;
12768;SDS011;6448;48.916;8.990;2023-12-20T05:14:39;0.70;;;0.70;;
12768;SDS011;6448;48.916;8.990;2023-12-20T05:15:40;0.80;;;0.80;;
12768;SDS011;6448;48.916;8.990;2023-12-20T05:16:42;0.70;;;0.70;;
12768;SDS011;6448;48.916;8.990;2023-12-20T05:17:43;0.70;;;0.70;;
12768;SDS011;6448;48.916;8.990;2023-12-20T05:18:45;0.90;;;0.90;;
12768;SDS011;6448;48.916;8.990;2023-12-20T05:19:49;0.80;;;0.80;;
12768;SDS011;6448;48.916;8.990;2023-12-20T05:20:51;0.90;;;0.90;;
12768;SDS011;6448;48.916;8.990;2023-12-20T05:21:52;0.80;;;0.80;;
12768;SDS011;6448;48.916;8.990;2023-12-20T05:22:54;0.90;;;0.90;;
12768;SDS011;6448;48.916;8.990;2023-12-20T05:23:55;0.70;;;0.70;;
12768;SDS011;6448;48.916;8.990;2023-12-20T05:24:56;0.88;;;0.88;;
12768;SDS011;6448;48.916;8.990;2023-12-20T05:25:58;0.90;;;0.90;;
12768;SDS011;6448;48.916;8.990;2023-12-20T05:27:00;0.80;;;0.80;;
12768;SDS011;6448;48.916;8.990;2023-12-20T05:28:01;0.80;;;0.80;;
12768;SDS011;6448;48.916;8.990;2023-12-20T05:29:03;0.80;;;0.80;;
12768;SDS011;6448;48.916;8.990;2023-12-20T05:30:04;0.90;;;0.80;;
12768;SDS011;6448;48.916;8.990;2023-12-20T05:31:06;0.80;;;0.80;;
12768;SDS011;6448;48.916;8.990;2023-12-20T05:32:07;0.80;;;0.80;;
12768;SDS011;6448;48.916;8.990;2023-12-20T05:33:08;0.80;;;0.80;;
12768;SDS011;6448;48.916;8.990;2023-12-20T05:34:09;0.98;;;0.95;;
12768;SDS011;6448;48.916;8.990;2023-12-20T05:35:11;0.80;;;0.80;;
12768;SDS011;6448;48.916;8.990;2023-12-20T05:36:12;0.80;;;0.80;;
12768;SDS011;6448;48.916;8.990;2023-12-20T05:37:15;1.40;;;0.80;;
12768;SDS011;6448;48.916;8.990;2023-12-20T05:38:15;0.83;;;0.80;;
12768;SDS011;6448;48.916;8.990;2023-12-20T05:39:17;0.80;;;0.80;;
12768;SDS011;6448;48.916;8.990;2023-12-20T05:40:18;0.80;;;0.80;;
12768;SDS011;6448;48.916;8.990;2023-12-20T05:41:21;0.73;;;0.73;;
12768;SDS011;6448;48.916;8.990;2023-12-20T05:42:23;0.87;;;0.87;;
12768;SDS011;6448;48.916;8.990;2023-12-20T05:43:24;0.90;;;0.90;;
12768;SDS011;6448;48.916;8.990;2023-12-20T05:44:25;0.97;;;0.97;;
12768;SDS011;6448;48.916;8.990;2023-12-20T05:45:27;0.80;;;0.80;;
12768;SDS011;6448;48.916;8.990;2023-12-20T05:46:27;0.80;;;0.80;;
12768;SDS011;6448;48.916;8.990;2023-12-20T05:47:29;0.90;;;0.90;;
12768;SDS011;6448;48.916;8.990;2023-12-20T05:48:30;0.90;;;0.90;;
12768;SDS011;6448;48.916;8.990;2023-12-20T05:49:32;0.80;;;0.80;;
12768;SDS011;6448;48.916;8.990;2023-12-20T05:50:33;0.90;;;0.90;;
12768;SDS011;6448;48.916;8.990;2023-12-20T05:51:35;1.67;;;1.58;;
12768;SDS011;6448;48.916;8.990;2023-12-20T05:52:36;1.70;;;1.60;;
12768;SDS011;6448;48.916;8.990;2023-12-20T05:53:38;2.00;;;1.90;;
12768;SDS011;6448;48.916;8.990;2023-12-20T05:54:39;1.77;;;1.67;;
12768;SDS011;6448;48.916;8.990;2023-12-20T05:55:39;1.30;;;1.20;;
12768;SDS011;6448;48.916;8.990;2023-12-20T05:56:42;1.00;;;1.00;;
12768;SDS011;6448;48.916;8.990;2023-12-20T05:57:43;1.00;;;1.00;;
12768;SDS011;6448;48.916;8.990;2023-12-20T05:58:45;0.95;;;0.95;;
12768;SDS011;6448;48.916;8.990;2023-12-20T05:59:46;0.90;;;0.90;;
12768;SDS011;6448;48.916;8.990;2023-12-20T06:00:47;0.88;;;0.88;;
12768;SDS011;6448;48.916;8.990;2023-12-20T06:01:49;0.90;;;0.90;;
12768;SDS011;6448;48.916;8.990;2023-12-20T06:02:50;1.00;;;1.00;;
12768;SDS011;6448;48.916;8.990;2023-12-20T06:03:51;0.95;;;0.93;;
12768;SDS011;6448;48.916;8.990;2023-12-20T06:04:52;0.90;;;0.90;;
12768;SDS011;6448;48.916;8.990;2023-12-20T06:05:54;0.82;;;0.82;;
12768;SDS011;6448;48.916;8.990;2023-12-20T06:06:54;0.90;;;0.90;;
12768;SDS011;6448;48.916;8.990;2023-12-20T06:07:56;0.90;;;0.90;;
12768;SDS011;6448;48.916;8.990;2023-12-20T06:09:01;0.90;;;0.90;;
12768;SDS011;6448;48.916;8.990;2023-12-20T06:10:04;0.93;;;0.93;;
12768;SDS011;6448;48.916;8.990;2023-12-20T06:11:06;0.90;;;0.90;;
12768;SDS011;6448;48.916;8.990;2023-12-20T06:12:09;1.10;;;1.00;;
12768;SDS011;6448;48.916;8.990;2023-12-20T06:13:10;1.17;;;1.10;;
12768;SDS011;6448;48.916;8.990;2023-12-20T06:14:13;0.90;;;0.90;;
12768;SDS011;6448;48.916;8.990;2023-12-20T06:15:14;0.90;;;0.90;;
12768;SDS011;6448;48.916;8.990;2023-12-20T06:16:15;1.27;;;1.17;;
12768;SDS011;6448;48.916;8.990;2023-12-20T06:17:16;1.20;;;1.10;;